createdAt,value
2022-12-03T00:01:59.873Z,1.10
2022-12-03T00:04:26.981Z,1.00
2022-12-03T00:06:56.520Z,1.10
2022-12-03T00:09:24.369Z,1.00
2022-12-03T00:11:51.202Z,1.00
2022-12-03T00:14:17.977Z,1.00
2022-12-03T00:16:44.857Z,1.00
2022-12-03T00:19:11.522Z,1.00
2022-12-03T00:21:38.242Z,1.00
2022-12-03T00:24:05.445Z,0.90
2022-12-03T00:26:32.164Z,0.90
2022-12-03T00:28:58.985Z,0.90
2022-12-03T00:31:26.210Z,0.90
2022-12-03T00:33:55.714Z,0.90
2022-12-03T00:36:22.397Z,0.90
2022-12-03T00:38:49.233Z,0.90
2022-12-03T00:41:15.899Z,0.90
2022-12-03T00:43:42.752Z,0.90
2022-12-03T00:46:09.659Z,0.90
2022-12-03T00:48:36.517Z,0.90
2022-12-03T00:51:03.289Z,0.90
2022-12-03T00:53:32.665Z,0.90
2022-12-03T00:56:01.760Z,0.90
2022-12-03T00:58:28.621Z,0.90
2022-12-03T01:00:55.324Z,0.90
2022-12-03T01:03:31.229Z,0.90
2022-12-03T01:06:04.898Z,0.90
2022-12-03T01:08:34.153Z,0.90
2022-12-03T01:11:00.957Z,0.90
2022-12-03T01:13:27.721Z,0.90
2022-12-03T01:16:05.338Z,0.90
2022-12-03T01:18:32.091Z,0.90
2022-12-03T01:20:59.912Z,0.80
2022-12-03T01:23:26.628Z,0.80
2022-12-03T01:25:53.321Z,0.80
2022-12-03T01:28:20.140Z,0.80
2022-12-03T01:31:05.449Z,0.70
2022-12-03T01:33:32.210Z,0.70
2022-12-03T01:35:58.913Z,0.70
2022-12-03T01:38:25.676Z,0.70
2022-12-03T01:40:54.730Z,0.70
2022-12-03T01:43:23.942Z,0.70
2022-12-03T01:45:50.714Z,0.70
2022-12-03T01:48:17.683Z,0.70
2022-12-03T01:50:45.998Z,0.70
2022-12-03T01:53:18.280Z,0.70
2022-12-03T01:55:48.899Z,0.80
2022-12-03T01:58:16.840Z,0.80
2022-12-03T02:00:43.512Z,0.80
2022-12-03T02:03:29.237Z,0.80
2022-12-03T02:05:57.081Z,0.80
2022-12-03T02:08:40.107Z,0.70
2022-12-03T02:11:16.668Z,0.70
2022-12-03T02:13:44.349Z,0.80
2022-12-03T02:16:11.157Z,0.70
2022-12-03T02:18:37.968Z,0.70
2022-12-03T02:21:45.312Z,0.70
2022-12-03T02:24:27.208Z,0.80
2022-12-03T02:26:53.973Z,0.70
2022-12-03T02:29:22.297Z,0.80
2022-12-03T02:31:49.151Z,0.80
2022-12-03T02:34:42.222Z,0.80
2022-12-03T02:37:14.617Z,0.80
2022-12-03T02:39:45.978Z,0.80
2022-12-03T02:42:31.711Z,0.80
2022-12-03T02:45:05.441Z,0.80
2022-12-03T02:47:40.444Z,0.80
2022-12-03T02:50:09.553Z,0.80
2022-12-03T02:52:37.076Z,0.80
2022-12-03T02:55:06.715Z,0.80
2022-12-03T02:57:36.054Z,0.80
2022-12-03T03:00:03.855Z,0.90
2022-12-03T03:02:30.777Z,0.80
2022-12-03T03:04:57.971Z,0.80
2022-12-03T03:07:25.006Z,0.80
2022-12-03T03:09:51.860Z,0.80
2022-12-03T03:12:18.653Z,0.80
2022-12-03T03:14:45.590Z,0.80
2022-12-03T03:17:13.361Z,0.80
2022-12-03T03:19:40.140Z,0.80
2022-12-03T03:22:06.893Z,0.80
2022-12-03T03:24:33.911Z,0.80
2022-12-03T03:27:00.584Z,0.80
2022-12-03T03:29:27.605Z,0.80
2022-12-03T03:31:54.647Z,0.80
2022-12-03T03:34:21.652Z,0.70
2022-12-03T03:36:49.575Z,0.70
2022-12-03T03:39:16.353Z,0.70
2022-12-03T03:41:45.923Z,0.70
2022-12-03T03:44:13.974Z,0.70
2022-12-03T03:46:42.708Z,0.70
2022-12-03T03:49:10.585Z,0.70
2022-12-03T03:51:38.042Z,0.70
2022-12-03T03:54:05.832Z,0.70
2022-12-03T03:56:34.957Z,0.70
2022-12-03T03:59:02.806Z,0.70
2022-12-03T04:01:30.520Z,0.70
2022-12-03T04:04:00.808Z,0.70
2022-12-03T04:06:28.083Z,0.80
2022-12-03T04:08:56.511Z,0.70
2022-12-03T04:11:42.253Z,0.70
2022-12-03T04:14:08.998Z,0.70
2022-12-03T04:16:35.729Z,0.70
2022-12-03T04:19:02.459Z,0.70
2022-12-03T04:21:47.843Z,0.60
2022-12-03T04:24:14.661Z,0.70
2022-12-03T04:27:02.051Z,0.70
2022-12-03T04:29:28.805Z,0.70
2022-12-03T04:32:14.059Z,0.70
2022-12-03T04:34:59.268Z,0.70
2022-12-03T04:37:27.249Z,0.70
2022-12-03T04:39:54.055Z,0.70
2022-12-03T04:42:20.921Z,0.70
2022-12-03T04:44:47.830Z,0.70
2022-12-03T04:47:23.532Z,0.70
2022-12-03T04:49:52.553Z,0.70
2022-12-03T04:52:20.158Z,0.70
2022-12-03T04:54:47.039Z,0.70
2022-12-03T04:57:15.041Z,0.80
2022-12-03T04:59:41.762Z,0.70
2022-12-03T05:02:10.961Z,0.80
2022-12-03T05:04:37.685Z,0.80
2022-12-03T05:07:04.494Z,0.80
2022-12-03T05:09:31.249Z,0.80
2022-12-03T05:11:57.933Z,0.70
2022-12-03T05:14:24.599Z,0.80
2022-12-03T05:16:51.520Z,0.80
2022-12-03T05:19:18.278Z,0.80
2022-12-03T05:21:44.995Z,0.70
2022-12-03T05:24:11.705Z,0.70
2022-12-03T05:26:38.393Z,0.80
2022-12-03T05:29:05.134Z,0.80
2022-12-03T05:31:31.955Z,0.80
2022-12-03T05:33:58.685Z,0.80
2022-12-03T05:36:25.693Z,0.80
2022-12-03T05:38:52.522Z,0.80
2022-12-03T05:41:38.794Z,0.80
2022-12-03T05:44:05.644Z,0.80
2022-12-03T05:46:32.996Z,0.80
2022-12-03T05:48:59.991Z,0.80
2022-12-03T05:51:26.849Z,0.80
2022-12-03T05:53:53.563Z,0.80
2022-12-03T05:56:20.297Z,0.90
2022-12-03T05:58:47.100Z,0.80
2022-12-03T06:01:13.850Z,0.90
2022-12-03T06:03:40.684Z,0.80
2022-12-03T06:06:07.596Z,0.80
2022-12-03T06:08:34.422Z,0.90
2022-12-03T06:11:01.243Z,0.80
2022-12-03T06:13:31.037Z,0.90
2022-12-03T06:15:57.954Z,0.90
2022-12-03T06:18:24.892Z,0.90
2022-12-03T06:20:51.687Z,0.90
2022-12-03T06:23:18.714Z,0.90
2022-12-03T06:25:45.515Z,0.90
2022-12-03T06:28:12.583Z,0.90
2022-12-03T06:30:39.325Z,0.90
2022-12-03T06:33:08.163Z,0.90
2022-12-03T06:35:34.912Z,0.90
2022-12-03T06:38:02.725Z,0.90
2022-12-03T06:40:29.461Z,0.90
2022-12-03T06:42:56.475Z,0.90
2022-12-03T06:45:23.207Z,0.90
2022-12-03T06:47:52.300Z,0.90
2022-12-03T06:50:19.093Z,0.90
2022-12-03T06:52:45.778Z,0.90
2022-12-03T06:55:12.752Z,0.90
2022-12-03T06:57:39.548Z,0.90
2022-12-03T07:00:09.317Z,0.90
2022-12-03T07:02:36.695Z,0.90
2022-12-03T07:05:04.310Z,0.90
2022-12-03T07:07:31.236Z,0.90
2022-12-03T07:09:58.480Z,1.00
2022-12-03T07:12:25.332Z,1.00
2022-12-03T07:14:52.329Z,1.00
2022-12-03T07:17:20.427Z,1.00
2022-12-03T07:19:47.195Z,0.90
2022-12-03T07:22:15.301Z,0.90
2022-12-03T07:24:42.039Z,0.90
2022-12-03T07:27:08.840Z,1.00
2022-12-03T07:29:35.629Z,1.00
2022-12-03T07:32:02.394Z,1.00
2022-12-03T07:34:30.670Z,1.00
2022-12-03T07:37:00.327Z,1.00
2022-12-03T07:39:27.175Z,1.00
2022-12-03T07:41:53.986Z,1.00
2022-12-03T07:44:20.721Z,1.00
2022-12-03T07:46:47.597Z,1.00
2022-12-03T07:49:14.641Z,1.10
2022-12-03T07:51:42.976Z,1.10
2022-12-03T07:54:09.728Z,1.10
2022-12-03T07:56:42.771Z,1.10
2022-12-03T07:59:17.427Z,1.20
2022-12-03T08:01:46.093Z,1.20
2022-12-03T08:04:14.886Z,1.20
2022-12-03T08:06:42.552Z,1.20
2022-12-03T08:09:14.594Z,1.20
2022-12-03T08:11:47.349Z,1.20
2022-12-03T08:14:16.704Z,1.20
2022-12-03T08:16:47.577Z,1.20
2022-12-03T08:19:17.250Z,1.30
2022-12-03T08:21:44.416Z,1.30
2022-12-03T08:24:15.742Z,1.30
2022-12-03T08:26:45.637Z,1.30
2022-12-03T08:29:15.241Z,1.30
2022-12-03T08:31:42.829Z,1.30
2022-12-03T08:34:15.939Z,1.30
2022-12-03T08:36:42.668Z,1.40
2022-12-03T08:39:35.933Z,1.40
2022-12-03T08:42:58.828Z,1.40
2022-12-03T08:45:40.136Z,1.40
2022-12-03T08:48:47.035Z,1.50
2022-12-03T08:51:21.836Z,1.50
2022-12-03T08:53:58.163Z,1.50
2022-12-03T08:56:30.020Z,1.50
2022-12-03T08:59:17.448Z,1.50
2022-12-03T09:01:47.053Z,1.50
2022-12-03T09:04:35.078Z,1.50
2022-12-03T09:07:02.131Z,1.50
2022-12-03T09:09:28.980Z,1.50
2022-12-03T09:11:56.282Z,1.50
2022-12-03T09:14:23.646Z,1.50
2022-12-03T09:16:55.581Z,1.50
2022-12-03T09:19:27.532Z,1.50
2022-12-03T09:21:55.142Z,1.50
2022-12-03T09:24:22.005Z,1.50
2022-12-03T09:26:49.030Z,1.50
2022-12-03T09:29:16.035Z,1.50
2022-12-03T09:31:42.884Z,1.50
2022-12-03T09:34:10.001Z,1.50
2022-12-03T09:36:36.814Z,1.50
2022-12-03T09:39:03.809Z,1.50
2022-12-03T09:41:31.624Z,1.60
2022-12-03T09:44:04.378Z,1.50
2022-12-03T09:46:31.710Z,1.50
2022-12-03T09:48:58.568Z,1.50
2022-12-03T09:51:30.166Z,1.60
2022-12-03T09:54:02.947Z,1.60
2022-12-03T09:56:29.948Z,1.50
2022-12-03T09:58:56.746Z,1.60
2022-12-03T10:01:27.874Z,1.60
2022-12-03T10:03:56.788Z,1.50
2022-12-03T10:06:24.376Z,1.50
2022-12-03T10:08:55.586Z,1.50
2022-12-03T10:11:25.124Z,1.50
2022-12-03T10:13:54.325Z,1.50
2022-12-03T10:16:23.200Z,1.60
2022-12-03T10:18:52.765Z,1.50
2022-12-03T10:21:27.461Z,1.50
2022-12-03T10:24:21.627Z,1.50
2022-12-03T10:26:50.669Z,1.50
2022-12-03T10:29:18.990Z,1.50
2022-12-03T10:31:49.099Z,1.50
2022-12-03T10:34:25.099Z,1.50
2022-12-03T10:37:22.567Z,1.60
2022-12-03T10:40:11.302Z,1.60
2022-12-03T10:42:40.741Z,1.60
2022-12-03T10:45:08.776Z,1.60
2022-12-03T10:47:35.883Z,1.50
2022-12-03T10:50:07.052Z,1.50
2022-12-03T10:52:34.992Z,1.60
2022-12-03T10:55:02.281Z,1.60
2022-12-03T10:57:30.100Z,1.50
2022-12-03T11:00:05.772Z,1.50
2022-12-03T11:02:33.934Z,1.50
2022-12-03T11:05:00.929Z,1.50
2022-12-03T11:07:47.800Z,1.50
2022-12-03T11:10:19.438Z,1.50
2022-12-03T11:13:26.424Z,1.60
2022-12-03T11:15:53.714Z,1.50
2022-12-03T11:18:41.641Z,1.60
2022-12-03T11:21:13.325Z,1.60
2022-12-03T11:23:48.798Z,1.60
2022-12-03T11:26:18.931Z,1.50
2022-12-03T11:28:47.740Z,1.50
2022-12-03T11:31:50.301Z,1.60
2022-12-03T11:34:40.060Z,1.50
2022-12-03T11:37:15.399Z,1.50
2022-12-03T11:39:48.276Z,1.50
2022-12-03T11:42:27.070Z,1.50
2022-12-03T11:45:32.359Z,1.60
2022-12-03T11:48:02.295Z,1.60
2022-12-03T11:50:40.387Z,1.50
2022-12-03T11:53:22.092Z,1.50
2022-12-03T11:56:06.640Z,1.40
2022-12-03T11:58:48.939Z,1.50
2022-12-03T12:01:16.079Z,1.50
2022-12-03T12:03:50.697Z,1.40
2022-12-03T12:06:20.494Z,1.40
2022-12-03T12:08:59.136Z,1.40
2022-12-03T12:11:27.277Z,1.50
2022-12-03T12:14:03.819Z,1.50
2022-12-03T12:16:50.518Z,1.50
2022-12-03T12:19:42.663Z,1.50
2022-12-03T12:22:20.604Z,1.50
2022-12-03T12:25:01.800Z,1.50
2022-12-03T12:27:49.327Z,1.40
2022-12-03T12:30:19.364Z,1.30
2022-12-03T12:33:14.248Z,1.40
2022-12-03T12:35:42.498Z,1.40
2022-12-03T12:38:11.306Z,1.40
2022-12-03T12:40:42.551Z,1.40
2022-12-03T12:43:16.470Z,1.40
2022-12-03T12:45:46.078Z,1.40
2022-12-03T12:48:34.483Z,1.40
2022-12-03T12:51:12.170Z,1.40
2022-12-03T12:53:42.646Z,1.50
2022-12-03T12:56:19.489Z,1.40
2022-12-03T12:58:46.263Z,1.30
2022-12-03T13:01:21.258Z,1.40
2022-12-03T13:03:51.419Z,1.30
2022-12-03T13:06:21.468Z,1.30
2022-12-03T13:08:50.194Z,1.30
2022-12-03T13:11:25.792Z,1.30
2022-12-03T13:13:53.558Z,1.30
2022-12-03T13:16:24.873Z,1.30
2022-12-03T13:18:59.711Z,1.30
2022-12-03T13:21:41.297Z,1.30
2022-12-03T13:24:38.718Z,1.30
2022-12-03T13:27:23.361Z,1.40
2022-12-03T13:30:00.765Z,1.30
2022-12-03T13:32:30.897Z,1.30
2022-12-03T13:35:36.014Z,1.20
2022-12-03T13:38:15.431Z,1.20
2022-12-03T13:40:42.494Z,1.20
2022-12-03T13:43:18.617Z,1.10
2022-12-03T13:45:49.618Z,1.20
2022-12-03T13:48:28.553Z,1.10
2022-12-03T13:50:56.978Z,1.10
2022-12-03T13:53:33.968Z,1.10
2022-12-03T13:56:22.114Z,1.20
2022-12-03T13:58:48.948Z,1.20
2022-12-03T14:01:15.715Z,1.10
2022-12-03T14:03:43.530Z,1.10
2022-12-03T14:06:10.473Z,1.20
2022-12-03T14:08:37.474Z,1.20
2022-12-03T14:11:04.594Z,1.20
2022-12-03T14:13:32.417Z,1.20
2022-12-03T14:15:59.349Z,1.20
2022-12-03T14:18:26.340Z,1.20
2022-12-03T14:20:54.196Z,1.20
2022-12-03T14:23:21.150Z,1.20
2022-12-03T14:25:49.017Z,1.20
2022-12-03T14:28:21.841Z,1.20
2022-12-03T14:30:51.742Z,1.20
2022-12-03T14:33:19.058Z,1.10
2022-12-03T14:35:48.985Z,1.20
2022-12-03T14:38:15.714Z,1.20
2022-12-03T14:40:42.562Z,1.20
2022-12-03T14:43:11.313Z,1.20
2022-12-03T14:45:38.118Z,1.20
2022-12-03T14:48:06.085Z,1.10
2022-12-03T14:50:32.890Z,1.10
2022-12-03T14:52:59.605Z,1.20
2022-12-03T14:55:33.677Z,1.10
2022-12-03T14:58:00.599Z,1.10
2022-12-03T15:00:29.627Z,1.10
2022-12-03T15:02:56.687Z,1.10
2022-12-03T15:05:28.589Z,1.10
2022-12-03T15:07:56.207Z,1.10
2022-12-03T15:10:25.445Z,1.10
2022-12-03T15:12:54.174Z,1.10
2022-12-03T15:15:20.927Z,1.00
2022-12-03T15:17:47.611Z,1.00
2022-12-03T15:20:16.585Z,1.00
2022-12-03T15:22:43.308Z,1.00
2022-12-03T15:25:10.287Z,0.90
2022-12-03T15:27:36.995Z,1.00
2022-12-03T15:30:05.082Z,1.00
2022-12-03T15:32:31.975Z,0.90
2022-12-03T15:34:58.856Z,0.90
2022-12-03T15:37:27.987Z,0.90
2022-12-03T15:39:55.115Z,1.00
2022-12-03T15:42:22.124Z,1.00
2022-12-03T15:44:49.971Z,0.90
2022-12-03T15:47:16.690Z,0.90
2022-12-03T15:49:45.061Z,0.90
2022-12-03T15:52:11.792Z,0.90
2022-12-03T15:54:39.669Z,0.90
2022-12-03T15:57:07.390Z,0.90
2022-12-03T16:00:01.388Z,0.90
2022-12-03T16:02:33.855Z,0.90
2022-12-03T16:05:06.533Z,0.90
2022-12-03T16:07:33.450Z,1.00
2022-12-03T16:10:01.973Z,1.00
2022-12-03T16:12:39.567Z,1.00
2022-12-03T16:15:10.555Z,1.00
2022-12-03T16:17:38.393Z,1.00
2022-12-03T16:20:06.659Z,1.00
2022-12-03T16:22:34.406Z,1.00
2022-12-03T16:25:01.163Z,0.90
2022-12-03T16:27:27.936Z,0.90
2022-12-03T16:29:56.545Z,0.90
2022-12-03T16:32:25.888Z,0.90
2022-12-03T16:34:52.616Z,1.00
2022-12-03T16:37:20.715Z,1.00
2022-12-03T16:39:48.355Z,1.00
2022-12-03T16:42:17.756Z,1.00
2022-12-03T16:44:59.525Z,1.00
2022-12-03T16:47:32.070Z,1.00
2022-12-03T16:50:01.753Z,1.00
2022-12-03T16:52:31.783Z,1.00
2022-12-03T16:54:58.703Z,1.00
2022-12-03T16:57:31.934Z,1.00
2022-12-03T17:00:00.856Z,1.00
2022-12-03T17:02:32.566Z,1.00
2022-12-03T17:04:59.437Z,1.10
2022-12-03T17:07:26.268Z,1.10
2022-12-03T17:09:53.371Z,1.10
2022-12-03T17:12:20.248Z,1.10
2022-12-03T17:14:47.012Z,1.00
2022-12-03T17:17:13.700Z,1.10
2022-12-03T17:19:40.388Z,1.10
2022-12-03T17:22:07.127Z,1.10
2022-12-03T17:24:37.513Z,1.10
2022-12-03T17:27:06.265Z,1.10
2022-12-03T17:29:33.077Z,1.10
2022-12-03T17:32:00.967Z,1.20
2022-12-03T17:34:27.792Z,1.20
2022-12-03T17:36:57.725Z,1.20
2022-12-03T17:39:24.584Z,1.20
2022-12-03T17:41:51.278Z,1.20
2022-12-03T17:44:21.050Z,1.20
2022-12-03T17:46:48.353Z,1.20
2022-12-03T17:49:15.145Z,1.20
2022-12-03T17:51:43.359Z,1.20
2022-12-03T17:54:12.402Z,1.20
2022-12-03T17:56:43.456Z,1.20
2022-12-03T17:59:12.027Z,1.20
2022-12-03T18:01:39.497Z,1.20
2022-12-03T18:04:06.322Z,1.20
2022-12-03T18:06:33.173Z,1.20
2022-12-03T18:09:00.229Z,1.20
2022-12-03T18:11:27.114Z,1.20
2022-12-03T18:13:53.860Z,1.20
2022-12-03T18:16:20.688Z,1.20
2022-12-03T18:18:48.632Z,1.10
2022-12-03T18:21:18.014Z,1.10
2022-12-03T18:23:44.931Z,1.20
2022-12-03T18:26:12.121Z,1.20
2022-12-03T18:28:39.915Z,1.20
2022-12-03T18:31:14.667Z,1.20
2022-12-03T18:33:42.839Z,1.20
2022-12-03T18:36:26.681Z,1.20
2022-12-03T18:38:55.365Z,1.20
2022-12-03T18:41:25.532Z,1.20
2022-12-03T18:43:52.975Z,1.20
2022-12-03T18:49:08.754Z,1.20
2022-12-03T18:51:36.180Z,1.30
2022-12-03T18:54:03.156Z,1.30
2022-12-03T18:56:29.898Z,1.30
2022-12-03T18:58:56.698Z,1.20
2022-12-03T19:01:23.691Z,1.30
2022-12-03T19:03:50.615Z,1.30
2022-12-03T19:06:19.531Z,1.30
2022-12-03T19:08:48.931Z,1.30
2022-12-03T19:11:15.848Z,1.30
2022-12-03T19:13:43.094Z,1.30
2022-12-03T19:16:12.091Z,1.30
2022-12-03T19:18:39.361Z,1.30
2022-12-03T19:21:11.633Z,1.30
2022-12-03T19:23:39.454Z,1.30
2022-12-03T19:26:09.158Z,1.30
2022-12-03T19:28:36.344Z,1.30
2022-12-03T19:31:16.353Z,1.30
2022-12-03T19:33:49.258Z,1.30
2022-12-03T19:36:24.838Z,1.30
2022-12-03T19:38:57.318Z,1.30
2022-12-03T19:41:27.899Z,1.40
2022-12-03T19:43:56.215Z,1.40
2022-12-03T19:46:24.554Z,1.30
2022-12-03T19:48:51.482Z,1.30
2022-12-03T19:51:35.344Z,1.40
2022-12-03T19:54:07.651Z,1.30
2022-12-03T19:56:34.856Z,1.40
2022-12-03T19:59:02.036Z,1.40
2022-12-03T20:01:31.551Z,1.40
2022-12-03T20:04:00.153Z,1.40
2022-12-03T20:06:33.155Z,1.40
2022-12-03T20:09:11.998Z,1.40
2022-12-03T20:11:40.785Z,1.30
2022-12-03T20:14:11.066Z,1.30
2022-12-03T20:16:37.959Z,1.30
2022-12-03T20:19:07.193Z,1.30
2022-12-03T20:21:36.330Z,1.30
2022-12-03T20:24:04.551Z,1.30
2022-12-03T20:26:32.279Z,1.30
2022-12-03T20:28:59.250Z,1.30
2022-12-03T20:31:28.563Z,1.30
2022-12-03T20:33:58.892Z,1.30
2022-12-03T20:36:26.572Z,1.30
2022-12-03T20:38:54.301Z,1.30
2022-12-03T20:41:21.391Z,1.30
2022-12-03T20:43:48.434Z,1.30
2022-12-03T20:46:27.581Z,1.30
2022-12-03T20:48:55.133Z,1.30
2022-12-03T20:51:28.033Z,1.30
2022-12-03T20:53:55.714Z,1.30
2022-12-03T20:56:23.961Z,1.30
2022-12-03T20:58:51.452Z,1.40
2022-12-03T21:01:26.725Z,1.40
2022-12-03T21:03:55.464Z,1.40
2022-12-03T21:06:24.837Z,1.40
2022-12-03T21:08:57.734Z,1.40
2022-12-03T21:11:32.687Z,1.40
2022-12-03T21:14:00.476Z,1.40
2022-12-03T21:17:06.086Z,1.40
2022-12-03T21:19:23.231Z,1.40
2022-12-03T21:21:50.212Z,1.40
2022-12-03T21:24:16.927Z,1.40
2022-12-03T21:26:43.715Z,1.40
2022-12-03T21:29:18.301Z,1.40
2022-12-03T21:31:47.632Z,1.40
2022-12-03T21:34:14.655Z,1.40
2022-12-03T21:36:41.333Z,1.40
2022-12-03T21:39:08.456Z,1.40
2022-12-03T21:41:36.745Z,1.40
2022-12-03T21:44:04.308Z,1.40
2022-12-03T21:47:12.462Z,1.40
2022-12-03T21:49:19.403Z,1.40
2022-12-03T21:51:46.540Z,1.40
2022-12-03T21:54:13.406Z,1.50
2022-12-03T21:56:40.262Z,1.50
2022-12-03T21:59:06.922Z,1.40
2022-12-03T22:01:36.020Z,1.50
2022-12-03T22:04:02.839Z,1.50
2022-12-03T22:06:29.586Z,1.50
2022-12-03T22:08:56.312Z,1.50
2022-12-03T22:11:23.851Z,1.50
2022-12-03T22:13:51.401Z,1.50
2022-12-03T22:16:20.491Z,1.50
2022-12-03T22:18:50.195Z,1.50
2022-12-03T22:21:19.257Z,1.50
2022-12-03T22:23:46.520Z,1.50
2022-12-03T22:26:16.915Z,1.50
2022-12-03T22:28:48.422Z,1.50
2022-12-03T22:31:16.469Z,1.50
2022-12-03T22:33:45.612Z,1.50
2022-12-03T22:36:18.305Z,1.50
2022-12-03T22:38:47.368Z,1.60
2022-12-03T22:41:16.198Z,1.60
2022-12-03T22:43:43.312Z,1.60
2022-12-03T22:46:12.531Z,1.60
2022-12-03T22:48:40.579Z,1.50
2022-12-03T22:51:14.629Z,1.60
2022-12-03T22:53:41.347Z,1.60
2022-12-03T22:56:08.084Z,1.60
2022-12-03T22:58:36.858Z,1.60
2022-12-03T23:01:03.861Z,1.60
2022-12-03T23:03:30.742Z,1.60
2022-12-03T23:05:57.426Z,1.60
2022-12-03T23:08:25.219Z,1.70
2022-12-03T23:10:53.127Z,1.60
2022-12-03T23:13:20.704Z,1.60
2022-12-03T23:15:52.664Z,1.70
2022-12-03T23:18:20.123Z,1.70
2022-12-03T23:20:51.020Z,1.60
2022-12-03T23:23:19.806Z,1.70
2022-12-03T23:26:05.190Z,1.60
2022-12-03T23:28:33.892Z,1.70
2022-12-03T23:31:05.627Z,1.70
2022-12-03T23:33:37.974Z,1.70
2022-12-03T23:36:10.572Z,1.70
2022-12-03T23:38:38.173Z,1.70
2022-12-03T23:41:06.212Z,1.70
2022-12-03T23:43:33.176Z,1.70
2022-12-03T23:46:12.004Z,1.70
2022-12-03T23:48:39.309Z,1.70
2022-12-03T23:51:07.963Z,1.70
2022-12-03T23:53:35.657Z,1.70
2022-12-03T23:56:09.117Z,1.70
2022-12-03T23:58:36.079Z,1.80
